Time;durP1;ratioP1;P1;durP2;ratioP2;P2;SDS_P1;SDS_P2;PMS_P1;PMS_P2;Temp;Humidity;BMP_temperature;BMP_pressure;BME280_temperature;BME280_humidity;BME280_pressure;Samples;Min_cycle;Max_cycle;Signal;HPM_P1;HPM_P2
2022/08/31 00:05:29;;;;;;;0.30;0.30;;;18.00;63.00;;;;;;6275213;22;20292;-72
2022/08/31 00:07:54;;;;;;;0.30;0.30;;;18.00;63.10;;;;;;6248623;22;19996;-74
2022/08/31 00:10:24;;;;;;;0.30;0.30;;;17.90;63.10;;;;;;6275184;22;20053;-72
2022/08/31 00:12:50;;;;;;;0.40;0.40;;;17.90;63.20;;;;;;6274975;22;20003;-72
2022/08/31 00:15:19;;;;;;;0.47;0.30;;;17.90;63.30;;;;;;6275151;22;20008;-72
2022/08/31 00:17:44;;;;;;;0.60;0.40;;;17.90;63.40;;;;;;6248426;22;20091;-72
2022/08/31 00:20:12;;;;;;;0.55;0.47;;;17.90;64.10;;;;;;6276807;22;20039;-74
2022/08/31 00:22:38;;;;;;;0.30;0.30;;;17.80;63.50;;;;;;6248490;22;20423;-75
2022/08/31 00:25:04;;;;;;;0.43;0.40;;;17.80;63.60;;;;;;6276262;22;20004;-74
2022/08/31 00:27:30;;;;;;;0.30;0.30;;;17.80;63.70;;;;;;6277022;22;20007;-75
2022/08/31 00:29:56;;;;;;;0.30;0.30;;;17.70;63.70;;;;;;6248634;22;20329;-74
2022/08/31 00:32:22;;;;;;;0.30;0.30;;;17.70;63.80;;;;;;6223269;22;19996;-74
2022/08/31 00:34:48;;;;;;;0.30;0.30;;;17.60;63.80;;;;;;6276318;22;20006;-74
2022/08/31 00:37:13;;;;;;;0.40;0.40;;;17.70;63.90;;;;;;6276383;22;19996;-72
2022/08/31 00:39:39;;;;;;;0.95;0.60;;;17.70;64.00;;;;;;6275319;22;20023;-72
2022/08/31 00:42:06;;;;;;;0.63;0.40;;;17.60;64.00;;;;;;6248228;22;20077;-72
2022/08/31 00:44:32;;;;;;;1.27;0.50;;;17.70;64.20;;;;;;6247849;22;20110;-72
2022/08/31 00:46:58;;;;;;;0.55;0.40;;;17.60;64.20;;;;;;6275505;22;20079;-74
2022/08/31 00:49:28;;;;;;;0.35;0.35;;;17.60;64.30;;;;;;6248016;22;20027;-74
2022/08/31 00:52:00;;;;;;;0.50;0.40;;;17.50;64.30;;;;;;6248511;22;20003;-72
2022/08/31 00:54:32;;;;;;;0.30;0.30;;;17.50;64.40;;;;;;6275790;22;20000;-74
2022/08/31 00:56:58;;;;;;;0.40;0.40;;;17.50;64.50;;;;;;6275275;22;20000;-74
2022/08/31 00:59:25;;;;;;;0.47;0.35;;;17.40;64.40;;;;;;6275703;22;20011;-74
2022/08/31 01:01:51;;;;;;;0.57;0.40;;;17.40;64.60;;;;;;6248428;22;20059;-75
2022/08/31 01:04:17;;;;;;;0.43;0.43;;;17.30;64.60;;;;;;6248460;22;20352;-74
2022/08/31 01:06:44;;;;;;;0.30;0.30;;;17.30;64.70;;;;;;6276031;22;20493;-75
2022/08/31 01:09:11;;;;;;;0.40;0.40;;;17.30;64.80;;;;;;6248815;22;20004;-74
2022/08/31 01:11:38;;;;;;;0.30;0.30;;;17.30;64.80;;;;;;6249602;22;20004;-75
2022/08/31 01:14:07;;;;;;;0.40;0.40;;;17.30;64.90;;;;;;6249161;22;20023;-75
2022/08/31 01:16:39;;;;;;;0.40;0.40;;;17.20;65.00;;;;;;6249015;22;20004;-74
2022/08/31 01:19:10;;;;;;;0.30;0.30;;;17.20;65.00;;;;;;6276395;22;20039;-72
2022/08/31 01:21:51;;;;;;;0.30;0.30;;;17.20;65.10;;;;;;6248265;22;20091;-72
2022/08/31 01:24:18;;;;;;;0.40;0.40;;;17.20;65.20;;;;;;6250013;22;20514;-75
2022/08/31 01:26:45;;;;;;;0.20;0.20;;;17.10;65.20;;;;;;6275030;22;20050;-72
2022/08/31 01:29:10;;;;;;;0.40;0.40;;;17.10;65.20;;;;;;6269401;22;20073;-74
2022/08/31 01:31:42;;;;;;;0.40;0.40;;;17.00;65.30;;;;;;6275801;22;20426;-75
2022/08/31 01:34:09;;;;;;;0.73;0.32;;;17.00;65.30;;;;;;6248447;22;20038;-75
2022/08/31 01:36:37;;;;;;;0.30;0.30;;;17.00;65.40;;;;;;6274425;22;19999;-73
2022/08/31 01:39:05;;;;;;;0.52;0.50;;;17.00;65.50;;;;;;6274774;22;21195;-72
2022/08/31 01:41:31;;;;;;;0.45;0.45;;;16.90;65.40;;;;;;6222786;22;20102;-72
2022/08/31 01:43:57;;;;;;;0.73;0.35;;;16.90;65.50;;;;;;6275039;22;20027;-74
2022/08/31 01:46:24;;;;;;;0.57;0.45;;;16.90;65.50;;;;;;6275894;22;20026;-74
2022/08/31 01:48:51;;;;;;;0.50;0.50;;;16.90;65.60;;;;;;6275941;22;20008;-74
2022/08/31 01:51:20;;;;;;;0.77;0.50;;;16.90;65.60;;;;;;6275247;22;20003;-74
2022/08/31 01:53:48;;;;;;;0.45;0.38;;;16.80;65.70;;;;;;6274601;22;20070;-75
2022/08/31 01:56:17;;;;;;;0.40;0.30;;;16.80;65.70;;;;;;6274765;22;20008;-75
2022/08/31 01:58:43;;;;;;;0.40;0.40;;;16.80;65.70;;;;;;6247524;22;20340;-74
2022/08/31 02:01:09;;;;;;;0.40;0.40;;;16.80;65.80;;;;;;6276391;22;20027;-75
2022/08/31 02:03:35;;;;;;;0.30;0.30;;;16.80;65.80;;;;;;6247614;22;20008;-75
2022/08/31 02:06:10;;;;;;;0.57;0.40;;;16.80;65.80;;;;;;6275092;22;20060;-75
2022/08/31 02:08:36;;;;;;;0.30;0.30;;;16.70;65.80;;;;;;6248034;22;20051;-74
2022/08/31 02:11:04;;;;;;;0.30;0.30;;;16.60;65.80;;;;;;6275395;22;20026;-74
2022/08/31 02:13:31;;;;;;;0.60;0.40;;;16.60;65.90;;;;;;6248178;22;20000;-72
2022/08/31 02:15:57;;;;;;;0.50;0.30;;;16.70;66.00;;;;;;6274487;22;20003;-72
2022/08/31 02:18:23;;;;;;;0.43;0.40;;;16.60;66.00;;;;;;6247487;22;20400;-72
2022/08/31 02:20:48;;;;;;;0.30;0.30;;;16.60;66.00;;;;;;6274581;22;20027;-72
2022/08/31 02:23:14;;;;;;;0.40;0.40;;;16.60;66.00;;;;;;6274878;22;20026;-72
2022/08/31 02:25:40;;;;;;;0.45;0.45;;;16.50;66.60;;;;;;6274856;22;20345;-72
2022/08/31 02:28:06;;;;;;;0.50;0.30;;;16.50;66.00;;;;;;6274779;22;20290;-72
2022/08/31 02:30:32;;;;;;;0.30;0.30;;;16.50;66.10;;;;;;6275162;22;20023;-72
2022/08/31 02:32:57;;;;;;;0.40;0.40;;;16.50;66.10;;;;;;6274020;22;19999;-72
2022/08/31 02:35:23;;;;;;;0.40;0.40;;;16.50;66.10;;;;;;6275011;22;20562;-72
2022/08/31 02:37:49;;;;;;;0.40;0.40;;;16.50;66.20;;;;;;6274263;22;20003;-72
2022/08/31 02:40:15;;;;;;;0.30;0.30;;;16.40;66.20;;;;;;6274812;22;20011;-72
2022/08/31 02:42:41;;;;;;;0.30;0.30;;;16.30;66.10;;;;;;6274828;22;20293;-72
2022/08/31 02:45:07;;;;;;;1.05;0.28;;;16.40;66.20;;;;;;6247755;22;20007;-72
2022/08/31 02:47:33;;;;;;;0.43;0.40;;;16.40;66.20;;;;;;6271113;22;20007;-72
2022/08/31 02:50:02;;;;;;;0.40;0.40;;;16.30;66.20;;;;;;6247156;22;20019;-72
2022/08/31 02:52:28;;;;;;;0.47;0.47;;;16.30;66.20;;;;;;6274888;22;20031;-72
2022/08/31 02:54:53;;;;;;;0.50;0.50;;;16.20;66.20;;;;;;6273840;22;20015;-72
2022/08/31 02:57:19;;;;;;;0.30;0.30;;;16.30;66.30;;;;;;6247073;22;20003;-72
2022/08/31 02:59:45;;;;;;;0.40;0.40;;;16.20;66.30;;;;;;6247082;22;20014;-72
2022/08/31 03:02:11;;;;;;;0.47;0.40;;;16.20;66.30;;;;;;6274277;22;20003;-72
2022/08/31 03:04:37;;;;;;;0.30;0.30;;;16.20;66.30;;;;;;6247232;22;20075;-72
2022/08/31 03:07:03;;;;;;;0.45;0.45;;;16.10;66.30;;;;;;6246742;22;20027;-72
2022/08/31 03:09:30;;;;;;;0.38;0.38;;;16.10;66.40;;;;;;6274228;22;19996;-72
2022/08/31 03:11:56;;;;;;;0.30;0.30;;;16.10;66.40;;;;;;6275288;22;20027;-72
2022/08/31 03:14:22;;;;;;;0.35;0.35;;;16.00;66.30;;;;;;6275848;22;20030;-73
2022/08/31 03:16:47;;;;;;;0.20;0.20;;;16.00;66.40;;;;;;6275527;22;20046;-73
2022/08/31 03:19:13;;;;;;;0.32;0.32;;;16.00;66.40;;;;;;6275304;22;20015;-72
2022/08/31 03:21:39;;;;;;;0.30;0.30;;;15.90;66.30;;;;;;6275204;22;19999;-72
2022/08/31 03:24:05;;;;;;;0.30;0.30;;;16.00;66.40;;;;;;6275727;22;20039;-72
2022/08/31 03:26:30;;;;;;;0.30;0.30;;;16.00;66.40;;;;;;6275770;22;20485;-72
2022/08/31 03:28:56;;;;;;;0.52;0.40;;;15.90;66.30;;;;;;6275123;22;20002;-72
2022/08/31 03:31:23;;;;;;;0.30;0.30;;;15.80;66.30;;;;;;6275893;22;19992;-72
2022/08/31 03:33:49;;;;;;;0.25;0.25;;;15.90;66.40;;;;;;6248179;22;20034;-72
2022/08/31 03:36:15;;;;;;;0.38;0.35;;;15.80;66.30;;;;;;6275132;22;20102;-72
2022/08/31 03:38:41;;;;;;;0.30;0.30;;;15.80;66.30;;;;;;6275057;22;20011;-72
2022/08/31 03:41:07;;;;;;;0.40;0.40;;;15.80;66.30;;;;;;6248447;22;20007;-72
2022/08/31 03:43:35;;;;;;;0.30;0.30;;;15.70;66.30;;;;;;6275528;22;20035;-72
2022/08/31 03:46:01;;;;;;;0.45;0.40;;;15.70;66.30;;;;;;6248377;22;20091;-73
2022/08/31 03:48:27;;;;;;;0.20;0.20;;;15.70;66.30;;;;;;6223780;22;20000;-72
2022/08/31 03:50:53;;;;;;;0.30;0.30;;;15.70;66.30;;;;;;6248928;22;20074;-72
2022/08/31 03:53:19;;;;;;;0.20;0.20;;;15.70;66.90;;;;;;6275742;22;20011;-72
2022/08/31 03:55:45;;;;;;;0.20;0.20;;;15.70;66.30;;;;;;6275291;22;20007;-72
2022/08/31 03:58:11;;;;;;;0.65;0.30;;;15.70;66.30;;;;;;6272223;22;20446;-73
2022/08/31 04:00:37;;;;;;;0.40;0.40;;;15.60;66.80;;;;;;6223090;22;20007;-73
2022/08/31 04:03:03;;;;;;;0.20;0.20;;;15.60;66.20;;;;;;6275896;22;20022;-73
2022/08/31 04:05:31;;;;;;;0.30;0.30;;;15.60;66.20;;;;;;6275244;22;20004;-73
2022/08/31 04:07:57;;;;;;;0.20;0.20;;;15.60;66.20;;;;;;6275953;22;20075;-72
2022/08/31 04:10:23;;;;;;;0.20;0.20;;;15.50;66.10;;;;;;6248554;22;20031;-72
2022/08/31 04:12:49;;;;;;;0.38;0.38;;;15.50;66.20;;;;;;6276087;22;20046;-72
2022/08/31 04:15:16;;;;;;;0.75;0.30;;;15.50;66.20;;;;;;6276075;22;20010;-72
2022/08/31 04:17:44;;;;;;;0.30;0.30;;;15.50;66.10;;;;;;6222821;22;20050;-72
2022/08/31 04:20:10;;;;;;;0.20;0.20;;;15.50;66.10;;;;;;6248473;22;20328;-72
2022/08/31 04:22:36;;;;;;;0.30;0.30;;;15.50;66.00;;;;;;6275852;22;20423;-72
2022/08/31 04:25:02;;;;;;;0.25;0.25;;;15.50;66.00;;;;;;6275935;22;20011;-73
2022/08/31 04:27:29;;;;;;;0.30;0.30;;;15.50;66.00;;;;;;6275296;22;20054;-73
2022/08/31 04:29:55;;;;;;;0.22;0.22;;;15.50;66.00;;;;;;6249039;22;20008;-72
2022/08/31 04:32:21;;;;;;;0.22;0.22;;;15.50;66.00;;;;;;6248109;22;20031;-72
2022/08/31 04:34:48;;;;;;;0.28;0.28;;;15.40;65.90;;;;;;6275755;22;20011;-72
2022/08/31 04:37:13;;;;;;;0.30;0.30;;;15.40;65.90;;;;;;6249334;22;19999;-72
2022/08/31 04:39:41;;;;;;;0.20;0.20;;;15.50;65.90;;;;;;6247881;22;20075;-73
2022/08/31 04:42:09;;;;;;;0.20;0.20;;;15.40;65.80;;;;;;6248705;22;20066;-73
2022/08/31 04:44:34;;;;;;;0.45;0.20;;;15.40;66.50;;;;;;6221869;22;20471;-72
2022/08/31 04:47:00;;;;;;;0.28;0.25;;;15.40;65.80;;;;;;6275791;22;19996;-72
2022/08/31 04:49:26;;;;;;;0.32;0.30;;;15.40;65.80;;;;;;6275980;22;20003;-73
2022/08/31 04:51:52;;;;;;;0.25;0.22;;;15.40;65.80;;;;;;6275682;22;20038;-72
2022/08/31 04:54:17;;;;;;;0.30;0.20;;;15.40;65.70;;;;;;6248227;22;20008;-72
2022/08/31 04:56:44;;;;;;;0.57;0.20;;;15.40;65.70;;;;;;6248162;22;20008;-72
2022/08/31 04:59:13;;;;;;;0.20;0.20;;;15.40;65.60;;;;;;6248097;22;20324;-72
2022/08/31 05:01:43;;;;;;;0.30;0.30;;;15.40;65.60;;;;;;6275867;22;20435;-73
2022/08/31 05:04:11;;;;;;;0.28;0.25;;;15.40;65.60;;;;;;6275512;22;20020;-73
2022/08/31 05:06:39;;;;;;;0.40;0.30;;;15.40;65.50;;;;;;6247956;22;20000;-72
2022/08/31 05:09:08;;;;;;;0.20;0.20;;;15.40;65.50;;;;;;6275877;22;20024;-72
2022/08/31 05:11:35;;;;;;;0.47;0.30;;;15.40;65.50;;;;;;6275539;22;20301;-73
2022/08/31 05:14:04;;;;;;;0.40;0.30;;;15.40;65.40;;;;;;6275883;22;20008;-73
2022/08/31 05:16:32;;;;;;;0.28;0.28;;;15.30;65.40;;;;;;6275823;22;20026;-73
2022/08/31 05:18:59;;;;;;;0.25;0.20;;;15.40;65.40;;;;;;6247891;22;20371;-72
2022/08/31 05:21:29;;;;;;;0.30;0.30;;;15.20;65.30;;;;;;6275622;22;20416;-72
2022/08/31 05:23:58;;;;;;;0.20;0.20;;;15.30;65.30;;;;;;6274841;22;20008;-72
2022/08/31 05:26:28;;;;;;;0.52;0.25;;;15.40;65.30;;;;;;6248732;22;20011;-72
2022/08/31 05:28:55;;;;;;;0.60;0.30;;;15.40;65.20;;;;;;6275152;22;20078;-72
2022/08/31 05:31:22;;;;;;;0.28;0.28;;;15.30;65.20;;;;;;6275531;22;20000;-72
2022/08/31 05:33:49;;;;;;;0.40;0.30;;;15.30;65.20;;;;;;6247242;22;20007;-72
2022/08/31 05:36:16;;;;;;;0.40;0.28;;;15.30;65.10;;;;;;6274901;22;20050;-73
2022/08/31 05:38:42;;;;;;;0.30;0.22;;;15.30;65.10;;;;;;6247928;22;20007;-72
2022/08/31 05:41:09;;;;;;;0.20;0.20;;;15.30;65.10;;;;;;6247597;22;20340;-73
2022/08/31 05:43:37;;;;;;;0.20;0.20;;;15.30;65.00;;;;;;6274716;22;20004;-72
2022/08/31 05:46:07;;;;;;;0.20;0.20;;;15.30;65.00;;;;;;6274761;22;20313;-73
2022/08/31 05:48:35;;;;;;;0.30;0.30;;;15.30;64.90;;;;;;6248640;22;20074;-72
2022/08/31 05:51:04;;;;;;;0.20;0.20;;;15.30;64.80;;;;;;6248107;22;20023;-73
2022/08/31 05:53:30;;;;;;;1.95;0.30;;;15.20;64.70;;;;;;6247927;22;20019;-72
2022/08/31 05:55:59;;;;;;;0.20;0.20;;;15.30;64.70;;;;;;6246457;22;20004;-72
2022/08/31 05:58:25;;;;;;;0.20;0.20;;;15.30;64.60;;;;;;6275563;22;20011;-72
2022/08/31 06:00:51;;;;;;;0.30;0.30;;;15.30;64.70;;;;;;6247394;22;20453;-72
2022/08/31 06:03:16;;;;;;;0.30;0.30;;;15.30;64.70;;;;;;6247898;22;20028;-72
2022/08/31 06:05:42;;;;;;;0.30;0.30;;;15.30;64.70;;;;;;6247218;22;20290;-73
2022/08/31 06:08:08;;;;;;;0.30;0.30;;;15.30;64.60;;;;;;6274686;22;20094;-72
2022/08/31 06:10:33;;;;;;;0.20;0.20;;;15.30;64.60;;;;;;6274831;22;20034;-72
2022/08/31 06:13:00;;;;;;;0.38;0.20;;;15.30;64.50;;;;;;6275645;22;20019;-72
2022/08/31 06:15:27;;;;;;;0.10;0.10;;;15.20;64.40;;;;;;6221114;22;20378;-72
2022/08/31 06:17:53;;;;;;;0.90;0.40;;;15.30;64.40;;;;;;6247810;22;20423;-72
2022/08/31 06:20:19;;;;;;;0.30;0.30;;;15.30;64.30;;;;;;6274599;22;20003;-72
2022/08/31 06:22:45;;;;;;;0.20;0.20;;;15.30;64.20;;;;;;6246561;22;20455;-72
2022/08/31 06:25:16;;;;;;;0.20;0.20;;;15.30;64.20;;;;;;6247821;22;19999;-72
2022/08/31 06:27:42;;;;;;;0.10;0.10;;;15.30;64.10;;;;;;6274725;22;19996;-71
2022/08/31 06:30:09;;;;;;;0.20;0.20;;;15.40;64.20;;;;;;6274602;22;20000;-71
2022/08/31 06:32:35;;;;;;;0.10;0.10;;;15.40;64.10;;;;;;6275045;22;19999;-72
2022/08/31 06:35:01;;;;;;;0.30;0.30;;;15.30;64.00;;;;;;6274897;22;19999;-72
2022/08/31 06:37:27;;;;;;;0.30;0.30;;;15.40;64.10;;;;;;6274826;22;20007;-73
2022/08/31 06:39:52;;;;;;;0.20;0.20;;;15.40;64.00;;;;;;6275248;22;19996;-72
2022/08/31 06:42:19;;;;;;;0.10;0.10;;;15.40;64.10;;;;;;6247499;22;19999;-72
2022/08/31 06:44:44;;;;;;;0.20;0.20;;;15.50;64.10;;;;;;6274077;22;20039;-72
2022/08/31 06:47:10;;;;;;;0.20;0.20;;;15.40;64.00;;;;;;6275320;22;20050;-73
2022/08/31 06:49:36;;;;;;;0.38;0.25;;;15.40;64.00;;;;;;6248854;22;20023;-72
2022/08/31 06:52:02;;;;;;;0.20;0.20;;;15.40;64.00;;;;;;6275821;22;20006;-72
2022/08/31 06:54:28;;;;;;;0.60;0.28;;;15.40;64.00;;;;;;6276110;22;20000;-72
2022/08/31 06:56:56;;;;;;;0.20;0.20;;;15.40;64.00;;;;;;6273053;22;20091;-72
2022/08/31 06:59:23;;;;;;;0.20;0.20;;;15.40;63.90;;;;;;6276455;22;20011;-72
2022/08/31 07:01:48;;;;;;;0.28;0.28;;;15.50;64.00;;;;;;6248803;22;20057;-72
2022/08/31 07:04:14;;;;;;;0.20;0.20;;;15.50;63.90;;;;;;6276201;22;20090;-72
2022/08/31 07:06:42;;;;;;;0.30;0.30;;;15.50;63.90;;;;;;6248602;22;20003;-73
2022/08/31 07:09:12;;;;;;;0.20;0.20;;;15.50;63.80;;;;;;6275479;22;20012;-73
2022/08/31 07:11:41;;;;;;;0.20;0.20;;;15.60;63.80;;;;;;6248941;22;19996;-72
2022/08/31 07:14:11;;;;;;;0.20;0.20;;;15.60;63.80;;;;;;6275308;22;20493;-73
2022/08/31 07:16:37;;;;;;;0.38;0.30;;;15.70;63.70;;;;;;6275618;22;20008;-72
2022/08/31 07:19:05;;;;;;;0.20;0.20;;;15.70;63.70;;;;;;6275906;22;20003;-72
2022/08/31 07:21:34;;;;;;;0.20;0.20;;;15.80;63.60;;;;;;6249738;22;20075;-72
2022/08/31 07:24:03;;;;;;;0.20;0.20;;;15.90;63.50;;;;;;6276149;22;20004;-72
2022/08/31 07:26:33;;;;;;;0.30;0.20;;;15.90;63.30;;;;;;6248517;22;20073;-72
2022/08/31 07:29:00;;;;;;;0.20;0.20;;;16.00;63.20;;;;;;6275712;22;20324;-72
2022/08/31 07:31:42;;;;;;;0.20;0.20;;;16.10;63.20;;;;;;6275622;22;20428;-72
2022/08/31 07:34:10;;;;;;;0.20;0.20;;;16.10;63.10;;;;;;6273861;22;20091;-73
2022/08/31 07:42:08;;;;;;;0.20;0.20;;;16.20;63.00;;;;;;6275381;22;20007;-72
2022/08/31 07:42:11;;;;;;;2.03;0.40;;;16.40;62.80;;;;;;6275439;22;20084;-73
2022/08/31 07:44:40;;;;;;;1.38;0.40;;;16.40;62.80;;;;;;6248323;22;20089;-73
2022/08/31 07:47:10;;;;;;;0.30;0.30;;;16.50;62.70;;;;;;6247445;22;20085;-72
2022/08/31 07:49:38;;;;;;;0.43;0.30;;;16.60;62.70;;;;;;6276361;22;20007;-72
2022/08/31 07:52:05;;;;;;;0.55;0.30;;;16.70;62.60;;;;;;6223112;22;20320;-73
2022/08/31 07:54:31;;;;;;;0.22;0.22;;;16.80;62.60;;;;;;6248801;22;20011;-72
2022/08/31 07:57:02;;;;;;;0.30;0.30;;;16.90;62.50;;;;;;6248134;22;20011;-72
2022/08/31 07:59:29;;;;;;;;;;;17.00;62.40;;;;;;6275763;22;20012;-72
2022/08/31 08:01:55;;;;;;;0.28;0.28;;;17.10;62.20;;;;;;6272194;22;19907;-72
2022/08/31 08:04:24;;;;;;;0.38;0.32;;;17.20;62.70;;;;;;6275357;22;20522;-73
2022/08/31 08:06:54;;;;;;;0.88;0.30;;;17.30;62.00;;;;;;6275245;22;20007;-73
2022/08/31 08:09:23;;;;;;;0.40;0.40;;;17.30;61.90;;;;;;6275934;22;19996;-72
2022/08/31 08:11:54;;;;;;;0.30;0.30;;;17.50;61.90;;;;;;6246016;22;20011;-72
2022/08/31 08:14:20;;;;;;;0.47;0.28;;;17.60;61.70;;;;;;6248317;22;20091;-72
2022/08/31 08:16:46;;;;;;;0.20;0.20;;;17.80;61.60;;;;;;6275759;22;20007;-73
2022/08/31 08:19:12;;;;;;;0.55;0.30;;;18.00;61.50;;;;;;6275699;22;20012;-72
2022/08/31 08:21:38;;;;;;;0.30;0.30;;;18.20;61.20;;;;;;6275180;22;20004;-72
2022/08/31 08:24:04;;;;;;;0.30;0.30;;;18.30;61.00;;;;;;6248476;22;20004;-72
2022/08/31 08:26:30;;;;;;;0.40;0.30;;;18.50;60.90;;;;;;6275916;22;20010;-72
2022/08/31 08:28:56;;;;;;;0.57;0.40;;;18.70;60.80;;;;;;6276052;22;20066;-73
2022/08/31 08:31:22;;;;;;;0.60;0.35;;;18.90;60.50;;;;;;6248446;22;20004;-72
2022/08/31 08:33:49;;;;;;;0.30;0.30;;;19.00;60.30;;;;;;6248276;22;20011;-73
2022/08/31 08:36:17;;;;;;;0.38;0.38;;;19.10;60.10;;;;;;6275821;22;20428;-73
2022/08/31 08:38:46;;;;;;;0.30;0.30;;;19.20;60.10;;;;;;6275075;22;20004;-73
2022/08/31 08:41:19;;;;;;;0.38;0.30;;;19.10;60.30;;;;;;6275431;22;20335;-72
2022/08/31 08:43:50;;;;;;;0.47;0.32;;;19.20;60.40;;;;;;6246514;22;20016;-73
2022/08/31 08:46:19;;;;;;;1.02;0.40;;;19.30;60.50;;;;;;6275218;22;20379;-72
2022/08/31 08:48:47;;;;;;;0.55;0.38;;;19.30;60.50;;;;;;6275737;22;20004;-72
2022/08/31 08:51:17;;;;;;;0.32;0.30;;;19.30;60.50;;;;;;6275732;22;20008;-73
2022/08/31 08:53:45;;;;;;;0.60;0.40;;;19.40;60.50;;;;;;6248454;22;20004;-72
2022/08/31 08:56:12;;;;;;;0.55;0.30;;;19.40;60.50;;;;;;6276133;22;20424;-72
2022/08/31 08:58:42;;;;;;;0.43;0.30;;;19.50;60.40;;;;;;6275296;22;20006;-72
2022/08/31 09:01:10;;;;;;;0.40;0.40;;;19.70;60.30;;;;;;6275749;22;20007;-73
2022/08/31 09:04:01;;;;;;;0.47;0.30;;;20.00;60.00;;;;;;6275694;22;20090;-72
2022/08/31 09:06:53;;;;;;;0.50;0.30;;;20.00;59.80;;;;;;6275198;22;20003;-72
2022/08/31 09:09:31;;;;;;;0.40;0.40;;;20.20;59.70;;;;;;6274520;22;19999;-72
2022/08/31 09:12:19;;;;;;;0.80;0.30;;;20.30;59.60;;;;;;6247998;22;20004;-72
2022/08/31 09:15:10;;;;;;;0.30;0.30;;;20.30;59.60;;;;;;6223230;22;20369;-72
2022/08/31 09:18:01;;;;;;;0.65;0.40;;;20.20;59.70;;;;;;6275039;22;20004;-72
2022/08/31 09:20:31;;;;;;;0.35;0.35;;;20.10;59.90;;;;;;6272336;22;19999;-74
2022/08/31 09:22:59;;;;;;;1.65;0.43;;;20.20;60.20;;;;;;6269818;22;20008;-72
2022/08/31 09:25:48;;;;;;;0.40;0.40;;;20.20;60.20;;;;;;6275104;22;19996;-73
2022/08/31 09:28:15;;;;;;;0.40;0.40;;;20.40;60.00;;;;;;6275438;22;19992;-72
2022/08/31 09:30:51;;;;;;;0.40;0.30;;;20.40;59.70;;;;;;6245484;22;19996;-73
2022/08/31 09:33:22;;;;;;;0.40;0.40;;;20.50;59.80;;;;;;6248428;22;20034;-72
2022/08/31 09:35:54;;;;;;;0.40;0.40;;;20.60;59.80;;;;;;6275344;22;20142;-72
2022/08/31 09:38:39;;;;;;;0.47;0.43;;;20.70;59.70;;;;;;6274813;22;20015;-72
2022/08/31 09:41:34;;;;;;;1.40;0.50;;;21.00;59.50;;;;;;6247322;22;20015;-73
2022/08/31 09:44:22;;;;;;;0.65;0.50;;;21.10;59.30;;;;;;6217867;22;20394;-73
2022/08/31 09:46:52;;;;;;;0.55;0.40;;;21.30;59.00;;;;;;6222710;22;19996;-73
2022/08/31 09:49:25;;;;;;;0.55;0.40;;;21.50;58.90;;;;;;6274755;22;20022;-72
2022/08/31 09:51:51;;;;;;;0.73;0.57;;;21.50;58.70;;;;;;6275195;22;20011;-73
2022/08/31 09:57:02;;;;;;;0.40;0.40;;;21.60;58.60;;;;;;6274978;22;20039;-72
2022/08/31 09:59:42;;;;;;;0.40;0.40;;;21.70;58.60;;;;;;6275500;22;20087;-72
2022/08/31 10:02:30;;;;;;;0.40;0.40;;;21.60;58.50;;;;;;6250377;22;20008;-72
2022/08/31 10:05:02;;;;;;;0.50;0.40;;;21.60;58.60;;;;;;6247503;22;20035;-72
2022/08/31 10:07:42;;;;;;;1.42;0.40;;;21.70;58.70;;;;;;6274810;22;20438;-72
2022/08/31 10:10:14;;;;;;;0.50;0.50;;;21.80;58.70;;;;;;6274527;22;20068;-72
2022/08/31 10:12:49;;;;;;;0.73;0.50;;;21.90;58.60;;;;;;6248677;22;19995;-72
2022/08/31 10:15:27;;;;;;;0.30;0.30;;;21.80;58.40;;;;;;6274989;22;20007;-72
2022/08/31 10:18:12;;;;;;;0.30;0.30;;;21.80;58.40;;;;;;6247548;22;19999;-72
2022/08/31 10:20:45;;;;;;;0.40;0.40;;;21.90;58.40;;;;;;6250654;22;20010;-73
2022/08/31 10:23:20;;;;;;;0.55;0.50;;;21.90;58.40;;;;;;6274788;22;20056;-73
2022/08/31 10:25:53;;;;;;;0.38;0.38;;;21.90;58.30;;;;;;6248801;22;20075;-72
2022/08/31 10:28:34;;;;;;;0.85;0.50;;;21.80;58.40;;;;;;6274668;22;20501;-73
2022/08/31 10:31:06;;;;;;;0.68;0.60;;;22.00;58.30;;;;;;6275161;22;20003;-73
2022/08/31 10:36:29;;;;;;;0.65;0.57;;;22.10;57.90;;;;;;6274925;22;20015;-72
2022/08/31 10:38:56;;;;;;;1.52;0.40;;;22.10;57.70;;;;;;6274600;22;20996;-72
2022/08/31 10:41:29;;;;;;;0.40;0.40;;;22.10;57.60;;;;;;6222657;22;20003;-72
2022/08/31 10:44:25;;;;;;;0.40;0.40;;;22.30;57.60;;;;;;6247757;22;20020;-72
2022/08/31 10:46:58;;;;;;;1.02;0.40;;;22.30;57.50;;;;;;6244332;22;20493;-72
2022/08/31 10:49:25;;;;;;;1.45;0.40;;;22.40;57.30;;;;;;6248011;22;20324;-72
2022/08/31 10:52:02;;;;;;;0.80;0.47;;;22.50;57.30;;;;;;6274320;22;20364;-72
2022/08/31 10:54:41;;;;;;;0.50;0.50;;;22.50;57.20;;;;;;6274891;22;20083;-73
2022/08/31 10:57:41;;;;;;;0.50;0.50;;;22.50;57.00;;;;;;6274966;22;20000;-73
2022/08/31 11:03:35;;;;;;;0.40;0.40;;;22.60;56.90;;;;;;6274368;22;20015;-72
2022/08/31 11:06:12;;;;;;;0.40;0.40;;;22.60;56.90;;;;;;6251815;22;20241;-73
2022/08/31 11:09:13;;;;;;;1.00;0.35;;;22.70;56.90;;;;;;6275083;22;20079;-72
2022/08/31 11:11:42;;;;;;;;;;;22.70;56.90;;;;;;6274914;22;20043;-72
2022/08/31 11:14:44;;;;;;;1.52;0.30;;;22.80;56.90;;;;;;6247106;22;19899;-73
2022/08/31 11:17:36;;;;;;;0.57;0.40;;;22.90;56.80;;;;;;6253187;22;20023;-73
2022/08/31 11:20:24;;;;;;;0.45;0.30;;;22.90;56.70;;;;;;6253697;22;20012;-73
2022/08/31 11:23:17;;;;;;;0.70;0.35;;;22.90;56.70;;;;;;6243829;22;20412;-73
2022/08/31 11:26:09;;;;;;;0.47;0.40;;;22.90;56.50;;;;;;6253402;22;20428;-73
2022/08/31 11:28:47;;;;;;;0.38;0.30;;;22.90;56.60;;;;;;6274097;22;20015;-73
2022/08/31 11:31:22;;;;;;;0.40;0.40;;;22.90;56.70;;;;;;6274275;22;19996;-73
2022/08/31 11:33:55;;;;;;;0.65;0.30;;;22.90;56.70;;;;;;6275358;22;20057;-73
2022/08/31 11:36:45;;;;;;;0.30;0.30;;;22.90;56.70;;;;;;6272387;22;20440;-73
2022/08/31 11:39:34;;;;;;;0.55;0.50;;;22.90;56.60;;;;;;6248486;22;20011;-73
2022/08/31 11:42:09;;;;;;;0.40;0.40;;;23.00;56.60;;;;;;6253940;22;20079;-73
2022/08/31 11:44:58;;;;;;;0.40;0.40;;;23.00;56.60;;;;;;6275408;22;20086;-73
2022/08/31 11:47:34;;;;;;;0.65;0.40;;;23.10;56.40;;;;;;6275346;22;20006;-73
2022/08/31 11:50:08;;;;;;;0.73;0.50;;;23.30;56.10;;;;;;6248414;22;20011;-73
2022/08/31 11:52:46;;;;;;;0.30;0.30;;;23.60;55.70;;;;;;6248241;22;20000;-73
2022/08/31 11:55:42;;;;;;;0.22;0.22;;;23.70;55.30;;;;;;6275476;22;20000;-73
2022/08/31 11:58:15;;;;;;;0.30;0.30;;;23.90;55.10;;;;;;6275214;22;20007;-73
2022/08/31 12:00:57;;;;;;;0.30;0.30;;;23.90;55.10;;;;;;6248628;22;20007;-74
2022/08/31 12:03:49;;;;;;;0.40;0.40;;;24.00;55.10;;;;;;6275290;22;20390;-73
2022/08/31 12:06:47;;;;;;;0.40;0.40;;;23.80;55.10;;;;;;6275399;22;20027;-73
2022/08/31 12:09:40;;;;;;;0.47;0.40;;;23.60;55.50;;;;;;6253064;22;20000;-73
2022/08/31 12:12:37;;;;;;;0.50;0.50;;;23.50;55.60;;;;;;6275767;22;20011;-73
2022/08/31 12:15:27;;;;;;;1.38;0.40;;;23.60;55.70;;;;;;6253816;22;20061;-73
2022/08/31 12:18:09;;;;;;;1.65;0.25;;;23.70;55.60;;;;;;6275073;22;20004;-73
2022/08/31 12:24:18;;;;;;;0.30;0.30;;;24.10;54.90;;;;;;6255903;22;20402;-73
2022/08/31 12:27:08;;;;;;;0.50;0.30;;;24.20;54.50;;;;;;6248060;22;20057;-73
2022/08/31 12:29:36;;;;;;;0.25;0.25;;;24.20;54.30;;;;;;6275328;22;20000;-73
2022/08/31 12:32:28;;;;;;;0.38;0.30;;;24.00;54.60;;;;;;6248790;22;20002;-73
2022/08/31 12:35:15;;;;;;;0.57;0.40;;;23.80;55.00;;;;;;6252831;22;20074;-74
2022/08/31 12:37:41;;;;;;;0.30;0.30;;;23.80;55.20;;;;;;6249356;22;20428;-72
2022/08/31 12:40:19;;;;;;;0.55;0.50;;;23.80;55.20;;;;;;6275152;22;20857;-73
2022/08/31 12:43:08;;;;;;;0.40;0.40;;;23.90;55.00;;;;;;6275312;22;20006;-73
2022/08/31 12:46:01;;;;;;;0.32;0.32;;;24.00;54.80;;;;;;6253357;22;20004;-73
2022/08/31 12:49:01;;;;;;;0.40;0.40;;;24.00;54.60;;;;;;6252552;22;19996;-73
2022/08/31 12:51:50;;;;;;;0.65;0.50;;;24.10;54.50;;;;;;6252651;22;20007;-73
2022/08/31 12:54:50;;;;;;;0.40;0.40;;;24.20;54.30;;;;;;6275511;22;20007;-73
2022/08/31 12:57:40;;;;;;;0.30;0.30;;;24.20;54.20;;;;;;6274910;22;20013;-73
2022/08/31 13:00:14;;;;;;;2.43;0.30;;;24.30;54.10;;;;;;6275228;22;20006;-73
2022/08/31 13:02:43;;;;;;;0.30;0.30;;;24.40;53.90;;;;;;6274968;22;20090;-73
2022/08/31 13:05:22;;;;;;;0.95;0.40;;;24.40;53.70;;;;;;6275641;22;20550;-73
2022/08/31 13:07:49;;;;;;;0.30;0.30;;;24.40;53.80;;;;;;6275891;22;20000;-73
2022/08/31 13:10:27;;;;;;;0.40;0.40;;;24.50;53.70;;;;;;6275281;22;20007;-73
2022/08/31 13:12:57;;;;;;;0.40;0.40;;;24.50;53.60;;;;;;6275185;22;20007;-72
2022/08/31 13:15:27;;;;;;;1.45;0.40;;;24.60;53.70;;;;;;6275794;22;20050;-73
2022/08/31 13:17:54;;;;;;;0.35;0.35;;;24.70;53.50;;;;;;6275106;22;20007;-73
2022/08/31 13:20:24;;;;;;;0.40;0.35;;;24.70;54.00;;;;;;6249183;22;20003;-73
2022/08/31 13:23:01;;;;;;;0.40;0.40;;;24.80;53.30;;;;;;6275056;22;20006;-73
2022/08/31 13:25:37;;;;;;;0.45;0.45;;;24.70;53.30;;;;;;6247880;22;20178;-73
2022/08/31 13:28:21;;;;;;;0.30;0.30;;;24.60;53.60;;;;;;6275157;22;20031;-73